首页
METAR-TAF:

METAR-TAF

机场 :

喀土穆国际机场

喀土穆, 苏丹共和国

纬度: 15-36N, 经度: 032-33E, 海拔: 382米

当前天气观测

该预报发布于38分钟前的11:00 UTC
风速7节,风向东转东北
温度 36°C
湿度 10%
气压 1012 hPa
能见度10公里或以上
1500米以下无云,无积雨云

METAR: HSSS 241100Z 07007KT CAVOK 36/00 Q1012 NOSIG

时间: 14:38 (11:38 UTC)

预报

该预报发布于6小时和38分钟前的05:00 UTC
预报有效从24日的 06点(UTC)到 25日的 12点(UTC)
风速6节,风向,有时为16节阵风
能见度10公里或以上
1500米以下无云,无积雨云

TAF: HSSS 240500Z 2406/2512 36006G16KT CAVOK

超过4000个机场的气象观测和天气预报(METAR&TAF报告)。

可查询的气象台以黄色和红色小点在地图上表示。

将鼠标移到小点上方,可查看气象台名称。

然后点击查看天气观测和预报。

如需切换地图:点击带黑十字的绿色按钮放大地图;点击带横线的绿色按钮缩小地图;或者点击绿色箭头查看邻近地区的地图。


METAR-TAF: